Time;durP1;ratioP1;P1;durP2;ratioP2;P2;SDS_P1;SDS_P2;PMS_P1;PMS_P2;Temp;Humidity;BMP_temperature;BMP_pressure;BME280_temperature;BME280_humidity;BME280_pressure;Samples;Min_cycle;Max_cycle;Signal;HPM_P1;HPM_P2
2022/02/09 00:04:51;;;;;;;26.00;5.95;;;9.00;99.90;;;;;;4986701;28;20474;-84
2022/02/09 00:07:22;;;;;;;14.80;6.20;;;9.00;99.90;;;;;;4982843;28;20482;-84
2022/02/09 00:09:48;;;;;;;21.05;6.97;;;9.10;99.90;;;;;;4995108;28;20051;-80
2022/02/09 00:12:34;;;;;;;21.80;6.65;;;9.00;99.90;;;;;;4980359;28;20372;-83
2022/02/09 00:17:45;;;;;;;15.80;5.95;;;9.10;99.90;;;;;;4985697;28;20041;-80
2022/02/09 01:57:08;;;;;;;17.98;3.70;;;9.10;99.90;;;;;;4980478;28;20062;-79
2022/02/09 01:59:36;;;;;;;15.52;3.80;;;9.10;99.90;;;;;;4997894;28;20100;-78
2022/02/09 02:02:02;;;;;;;13.57;3.40;;;9.10;99.90;;;;;;4984760;28;20042;-78
2022/02/09 02:04:27;;;;;;;14.10;3.53;;;9.10;99.90;;;;;;4986403;28;20173;-77
2022/02/09 02:06:54;;;;;;;15.93;4.32;;;9.10;99.90;;;;;;5012170;28;20077;-78
2022/02/09 02:09:22;;;;;;;20.55;4.55;;;9.10;99.90;;;;;;4967081;28;20065;-80
2022/02/09 02:11:54;;;;;;;19.13;4.10;;;9.10;99.90;;;;;;4971833;28;20038;-80
2022/02/09 02:19:59;;;;;;;12.40;3.70;;;9.00;99.90;;;;;;4914278;29;20055;-81
2022/02/09 02:22:47;;;;;;;15.35;3.72;;;9.00;99.90;;;;;;4912880;29;20190;-80
2022/02/09 02:59:44;;;;;;;14.48;4.40;;;8.80;99.90;;;;;;4985375;28;20054;-78
2022/02/09 03:21:05;;;;;;;19.73;4.78;;;8.90;99.90;;;;;;4949110;29;20118;-80
2022/02/09 03:23:46;;;;;;;20.13;4.68;;;8.80;99.90;;;;;;4931404;29;20079;-78
2022/02/09 03:43:04;;;;;;;12.48;4.60;;;8.70;99.90;;;;;;4943441;29;20044;-78
2022/02/09 03:45:50;;;;;;;20.80;4.60;;;8.70;99.90;;;;;;4908883;29;20120;-78
2022/02/09 03:48:11;;;;;;;19.08;5.13;;;8.70;99.90;;;;;;4909288;29;20073;-81
2022/02/09 03:50:55;;;;;;;20.23;4.47;;;8.60;99.90;;;;;;4946155;29;20130;-80
2022/02/09 03:53:35;;;;;;;20.75;5.30;;;8.70;99.90;;;;;;4947321;29;20058;-79
2022/02/09 03:58:36;;;;;;;18.80;4.88;;;8.60;99.90;;;;;;4935232;29;20189;-82
2022/02/09 04:01:02;;;;;;;18.27;5.40;;;8.50;99.90;;;;;;4932515;28;20140;-79
2022/02/09 04:03:28;;;;;;;27.85;6.00;;;8.60;99.90;;;;;;4951065;28;20444;-81
2022/02/09 04:05:53;;;;;;;20.35;5.03;;;8.60;99.90;;;;;;4962392;28;20138;-82
2022/02/09 04:08:26;;;;;;;13.82;4.50;;;8.70;99.90;;;;;;4960157;28;20205;-82
2022/02/09 04:11:04;;;;;;;22.88;5.28;;;8.60;99.90;;;;;;4965838;28;20062;-79
2022/02/09 04:16:09;;;;;;;17.95;5.22;;;8.60;99.90;;;;;;4983411;28;20379;-81
2022/02/09 04:40:26;;;;;;;18.23;4.30;;;8.60;99.90;;;;;;5024910;28;20046;-82
2022/02/09 04:50:29;;;;;;;20.88;4.28;;;8.60;99.90;;;;;;4986935;28;20070;-78
2022/02/09 04:56:03;;;;;;;18.15;4.00;;;8.60;99.90;;;;;;4968003;28;20057;-80
2022/02/09 04:58:48;;;;;;;17.67;3.83;;;8.80;99.90;;;;;;4950866;28;20066;-80
2022/02/09 05:01:40;;;;;;;17.05;4.05;;;8.60;99.90;;;;;;4967385;28;20055;-81
2022/02/09 05:18:06;;;;;;;16.95;3.38;;;8.60;99.90;;;;;;4951610;28;20050;-82
2022/02/09 05:28:49;;;;;;;21.60;3.92;;;8.60;99.90;;;;;;4936072;28;20046;-82
2022/02/09 05:31:14;;;;;;;16.45;3.63;;;8.60;99.90;;;;;;4953432;28;20042;-79
2022/02/09 05:33:40;;;;;;;15.95;3.70;;;8.80;99.90;;;;;;4952595;28;20050;-83
2022/02/09 05:36:06;;;;;;;13.55;3.97;;;8.70;99.90;;;;;;4968415;28;20157;-82
2022/02/09 05:38:32;;;;;;;13.20;3.38;;;8.60;99.90;;;;;;4952887;28;20147;-80
2022/02/09 05:40:58;;;;;;;12.30;3.45;;;8.60;99.90;;;;;;4969685;28;20153;-82
2022/02/09 05:43:26;;;;;;;18.00;3.97;;;8.60;99.90;;;;;;4985533;28;20062;-79
2022/02/09 05:51:49;;;;;;;13.27;3.78;;;8.50;99.90;;;;;;4914176;29;20075;-80
2022/02/09 05:56:45;;;;;;;12.77;3.55;;;8.50;99.90;;;;;;4914305;29;20047;-80
2022/02/09 05:59:28;;;;;;;23.27;3.78;;;8.50;99.90;;;;;;4915570;29;20126;-82
2022/02/09 06:01:56;;;;;;;16.92;3.53;;;8.50;99.90;;;;;;4930452;29;20467;-78
2022/02/09 06:04:22;;;;;;;16.27;3.83;;;8.50;99.90;;;;;;4914892;29;20492;-82
2022/02/09 06:06:48;;;;;;;19.75;4.18;;;8.50;99.90;;;;;;4916686;29;20083;-80
2022/02/09 06:09:13;;;;;;;19.33;4.00;;;8.50;99.90;;;;;;4931318;29;20077;-83
2022/02/09 06:12:01;;;;;;;21.40;4.45;;;8.50;99.90;;;;;;4949448;28;20110;-80
2022/02/09 06:19:51;;;;;;;19.20;3.45;;;8.50;99.90;;;;;;4949596;29;20122;-79
2022/02/09 06:22:17;;;;;;;19.90;3.55;;;8.50;99.90;;;;;;4930221;29;20046;-84
2022/02/09 06:24:43;;;;;;;19.38;3.33;;;8.50;99.90;;;;;;4950941;28;20376;-79
2022/02/09 06:27:10;;;;;;;19.65;3.92;;;8.50;99.90;;;;;;4981742;28;20149;-77
2022/02/09 06:29:37;;;;;;;19.35;3.50;;;8.50;99.90;;;;;;4968360;28;20066;-80
2022/02/09 06:32:08;;;;;;;14.85;3.30;;;8.50;99.90;;;;;;4976685;28;20035;-78
2022/02/09 06:34:38;;;;;;;17.17;3.42;;;8.50;99.90;;;;;;4983116;28;20080;-81
2022/02/09 06:37:14;;;;;;;14.32;3.40;;;8.50;99.90;;;;;;5016385;28;20062;-80
2022/02/09 06:39:44;;;;;;;15.38;3.20;;;8.50;99.90;;;;;;4977130;28;20062;-80
2022/02/09 06:42:11;;;;;;;18.08;3.60;;;8.50;99.90;;;;;;5008991;28;20072;-80
2022/02/09 06:44:37;;;;;;;15.82;3.35;;;8.50;99.90;;;;;;4967562;28;20071;-78
2022/02/09 06:47:03;;;;;;;15.63;3.08;;;8.50;99.90;;;;;;4994311;28;20054;-76
2022/02/09 06:49:30;;;;;;;16.92;3.13;;;8.50;99.90;;;;;;4968034;28;20046;-78
2022/02/09 06:51:56;;;;;;;21.15;4.07;;;8.50;99.90;;;;;;4980610;28;20047;-78
2022/02/09 06:54:30;;;;;;;20.95;3.30;;;8.50;99.90;;;;;;4994939;28;20165;-79
2022/02/09 06:57:03;;;;;;;19.65;4.18;;;8.60;99.90;;;;;;5011052;28;20449;-77
2022/02/09 06:59:34;;;;;;;15.30;3.42;;;8.50;99.90;;;;;;5000753;28;20035;-77
2022/02/09 07:02:06;;;;;;;18.30;3.97;;;8.50;99.90;;;;;;4979453;28;20050;-77
2022/02/09 07:04:34;;;;;;;19.73;4.32;;;8.50;99.90;;;;;;4963744;28;20047;-78
2022/02/09 07:06:59;;;;;;;14.82;3.60;;;8.50;99.90;;;;;;4983675;28;20050;-79
2022/02/09 07:09:27;;;;;;;13.65;3.47;;;8.50;99.90;;;;;;4984540;28;20057;-78
2022/02/09 07:11:53;;;;;;;18.55;4.13;;;8.50;99.90;;;;;;5015718;28;20042;-75
2022/02/09 07:14:25;;;;;;;19.85;3.67;;;8.50;99.90;;;;;;4984267;28;20556;-76
2022/02/09 07:16:52;;;;;;;19.00;3.83;;;8.50;99.90;;;;;;4977599;28;20058;-79
2022/02/09 07:19:18;;;;;;;17.17;3.80;;;8.50;99.90;;;;;;4964866;28;20053;-81
2022/02/09 07:21:44;;;;;;;16.20;4.15;;;8.50;99.90;;;;;;4980707;28;20030;-81
2022/02/09 07:24:16;;;;;;;15.95;4.00;;;8.50;99.90;;;;;;4965784;28;20046;-80
2022/02/09 07:29:09;;;;;;;24.35;3.90;;;8.70;99.90;;;;;;4979647;28;20137;-78
2022/02/09 07:31:35;;;;;;;12.77;3.65;;;8.40;99.90;;;;;;4981587;28;20067;-79
2022/02/09 07:34:01;;;;;;;23.20;3.80;;;8.50;99.90;;;;;;4986448;28;20046;-77
2022/02/09 07:36:35;;;;;;;16.45;3.38;;;8.50;99.90;;;;;;5002936;28;20054;-78
2022/02/09 07:39:05;;;;;;;21.02;3.17;;;8.50;99.90;;;;;;5010053;28;20117;-78
2022/02/09 07:41:32;;;;;;;16.38;3.67;;;8.50;99.90;;;;;;5009963;28;20073;-76
2022/02/09 07:49:06;;;;;;;18.00;3.13;;;8.60;99.90;;;;;;4994211;28;20133;-80
2022/02/09 07:54:06;;;;;;;17.05;3.15;;;8.60;99.90;;;;;;4984311;28;20126;-77
2022/02/09 07:56:40;;;;;;;19.88;3.38;;;8.60;99.90;;;;;;4967185;28;20092;-78
2022/02/09 07:59:09;;;;;;;18.42;3.10;;;8.60;99.90;;;;;;4987617;28;20057;-79
2022/02/09 08:01:35;;;;;;;21.27;3.17;;;8.90;99.90;;;;;;4987504;28;20050;-79
2022/02/09 08:04:00;;;;;;;14.82;2.90;;;8.60;99.90;;;;;;4986533;28;20133;-79
2022/02/09 08:06:27;;;;;;;13.88;3.15;;;8.70;99.90;;;;;;5004797;28;20137;-78
2022/02/09 08:08:56;;;;;;;22.38;3.10;;;8.70;99.90;;;;;;5016864;28;20388;-78
2022/02/09 08:11:35;;;;;;;10.68;2.70;;;8.70;99.90;;;;;;4979213;28;20072;-78
2022/02/09 08:27:56;;;;;;;16.57;3.10;;;8.80;99.90;;;;;;4984293;28;20477;-82
2022/02/09 08:30:48;;;;;;;16.98;3.20;;;8.80;99.90;;;;;;4982531;28;20050;-81
2022/02/09 08:33:19;;;;;;;20.92;3.33;;;8.80;99.90;;;;;;4986900;28;20051;-81
2022/02/09 08:35:51;;;;;;;15.70;3.30;;;8.80;99.90;;;;;;4986959;28;20064;-79
2022/02/09 08:38:17;;;;;;;20.17;3.60;;;8.90;99.90;;;;;;4974648;28;20113;-81
2022/02/09 08:40:45;;;;;;;17.88;3.67;;;8.80;99.90;;;;;;4977415;28;20054;-80
2022/02/09 08:43:11;;;;;;;17.73;3.20;;;8.80;99.90;;;;;;4993762;28;20089;-81
2022/02/09 08:45:42;;;;;;;23.20;3.85;;;8.80;99.90;;;;;;5008183;28;20050;-81
2022/02/09 08:48:08;;;;;;;15.13;3.40;;;9.00;99.90;;;;;;4973700;28;20054;-81
2022/02/09 08:50:34;;;;;;;16.35;3.38;;;8.60;99.90;;;;;;4974352;28;20396;-81
2022/02/09 08:53:01;;;;;;;12.18;3.53;;;8.70;99.90;;;;;;5007238;28;20057;-80
2022/02/09 08:55:27;;;;;;;20.48;3.53;;;8.60;99.90;;;;;;4983337;28;20082;-81
2022/02/09 08:57:53;;;;;;;16.25;3.35;;;8.60;99.90;;;;;;5016650;28;20101;-82
2022/02/09 09:00:26;;;;;;;12.77;3.15;;;8.60;99.90;;;;;;5007307;28;20149;-81
2022/02/09 09:03:17;;;;;;;19.27;3.00;;;8.90;99.90;;;;;;4990846;28;20057;-81
2022/02/09 09:08:34;;;;;;;13.30;3.08;;;8.50;99.90;;;;;;4988421;28;20046;-81
2022/02/09 10:03:09;;;;;;;17.05;4.50;;;8.80;99.90;;;;;;4988242;28;20483;-82
2022/02/09 10:34:13;;;;;;;21.45;3.58;;;9.30;99.90;;;;;;4954299;28;20060;-82
2022/02/09 10:36:56;;;;;;;12.02;2.53;;;9.40;99.90;;;;;;4937647;28;20043;-83
2022/02/09 10:39:32;;;;;;;17.38;3.65;;;9.40;99.90;;;;;;4937861;28;20479;-83
2022/02/09 10:42:13;;;;;;;13.60;3.03;;;9.60;99.90;;;;;;4954341;28;20125;-81
2022/02/09 10:44:46;;;;;;;15.93;3.15;;;9.40;99.90;;;;;;4937493;28;20105;-83
2022/02/09 10:47:27;;;;;;;12.32;3.10;;;10.00;99.90;;;;;;4940961;28;20145;-82
2022/02/09 10:50:39;;;;;;;16.90;3.08;;;9.30;99.90;;;;;;4938622;28;20541;-85
2022/02/09 10:53:10;;;;;;;16.00;3.00;;;9.40;99.90;;;;;;4953626;28;20134;-84
2022/02/09 10:55:54;;;;;;;14.95;3.22;;;9.20;99.90;;;;;;4938854;28;20583;-84
2022/02/09 10:58:22;;;;;;;12.15;3.20;;;9.40;99.90;;;;;;4954195;28;20513;-84
2022/02/09 11:00:50;;;;;;;14.93;3.55;;;10.20;99.90;;;;;;4954603;28;20518;-83
2022/02/09 11:03:21;;;;;;;14.40;3.00;;;9.40;99.90;;;;;;4956787;28;20450;-82
2022/02/09 11:05:49;;;;;;;12.50;2.90;;;9.30;99.90;;;;;;5011492;28;20069;-82
2022/02/09 11:08:16;;;;;;;14.32;2.75;;;9.30;99.90;;;;;;4996649;28;20070;-81
2022/02/09 11:10:45;;;;;;;16.60;3.08;;;9.70;99.90;;;;;;5010804;28;20116;-82
2022/02/09 11:13:12;;;;;;;14.25;3.10;;;9.40;99.90;;;;;;5025343;28;20425;-82
2022/02/09 11:15:45;;;;;;;23.88;3.70;;;9.50;99.90;;;;;;4998247;28;20452;-84
2022/02/09 11:18:15;;;;;;;13.85;2.70;;;9.40;99.90;;;;;;5029902;28;20118;-84
2022/02/09 11:21:01;;;;;;;13.60;2.58;;;10.00;99.90;;;;;;5014952;28;20046;-85
2022/02/09 11:23:40;;;;;;;15.73;3.00;;;10.10;99.90;;;;;;4989170;28;20054;-83
2022/02/09 11:26:57;;;;;;;14.40;2.45;;;10.10;99.90;;;;;;4982923;28;20513;-83
2022/02/09 11:29:32;;;;;;;;;;;9.40;99.90;;;;;;4969870;28;20486;-80
2022/02/09 11:37:39;;;;;;;14.93;2.50;;;9.40;99.90;;;;;;4981401;28;20103;-82
2022/02/09 11:40:56;;;;;;;13.05;2.50;;;9.40;99.90;;;;;;5004237;28;20054;-79
2022/02/09 11:43:28;;;;;;;16.95;2.97;;;9.30;99.90;;;;;;4986835;28;20050;-79
2022/02/09 11:55:17;;;;;;;10.10;2.38;;;9.30;99.90;;;;;;5006403;28;20261;-80
2022/02/09 12:09:41;;;;;;;14.00;2.78;;;9.10;99.90;;;;;;4977508;28;20077;-80
2022/02/09 12:12:19;;;;;;;19.85;3.42;;;9.10;99.90;;;;;;4993500;28;20435;-82
2022/02/09 12:17:26;;;;;;;20.05;3.15;;;9.00;99.90;;;;;;5029074;28;20053;-81
2022/02/09 12:20:02;;;;;;;13.80;2.85;;;9.00;99.90;;;;;;5013409;28;20061;-81
2022/02/09 12:22:37;;;;;;;18.48;2.70;;;9.10;99.90;;;;;;5029246;28;20045;-80
2022/02/09 12:25:03;;;;;;;10.15;2.78;;;9.20;99.90;;;;;;4982249;28;20117;-81
2022/02/09 12:27:28;;;;;;;14.55;3.58;;;9.10;99.90;;;;;;4977482;28;20145;-82
2022/02/09 12:30:00;;;;;;;16.40;2.90;;;9.40;99.90;;;;;;5000057;28;20052;-81
2022/02/09 12:32:29;;;;;;;15.73;2.88;;;9.20;99.90;;;;;;4996120;28;20524;-81
2022/02/09 12:34:58;;;;;;;19.40;3.15;;;9.10;99.90;;;;;;4996189;28;20058;-81
2022/02/09 12:37:30;;;;;;;13.50;2.30;;;9.10;99.90;;;;;;4973923;28;20062;-81
2022/02/09 12:39:57;;;;;;;15.13;2.72;;;9.10;99.90;;;;;;4961279;28;20042;-83
2022/02/09 12:42:28;;;;;;;8.98;1.88;;;9.60;99.90;;;;;;4977142;28;20436;-82
2022/02/09 12:45:04;;;;;;;10.40;2.42;;;9.20;99.90;;;;;;5010989;28;20433;-81
2022/02/09 12:47:41;;;;;;;9.55;2.05;;;9.10;99.90;;;;;;4981295;28;20042;-83
2022/02/09 12:50:10;;;;;;;13.40;2.75;;;9.20;99.90;;;;;;4977408;28;20046;-82
2022/02/09 12:52:40;;;;;;;11.77;2.63;;;9.20;99.90;;;;;;4964572;28;20042;-82
2022/02/09 12:55:17;;;;;;;14.57;2.63;;;9.20;99.90;;;;;;4963546;28;20049;-82
2022/02/09 12:57:53;;;;;;;13.23;2.75;;;9.10;99.90;;;;;;4986269;28;20046;-84
2022/02/09 13:00:29;;;;;;;15.00;3.22;;;9.10;99.90;;;;;;5021578;28;20042;-83
2022/02/09 13:03:05;;;;;;;15.85;3.15;;;9.20;99.90;;;;;;5012509;28;20441;-82
2022/02/09 13:05:33;;;;;;;16.08;2.67;;;9.10;99.90;;;;;;4992848;28;20540;-83
2022/02/09 13:08:01;;;;;;;16.90;2.53;;;9.10;99.90;;;;;;5028218;28;20055;-82
2022/02/09 13:10:33;;;;;;;13.55;2.90;;;8.90;99.90;;;;;;4970090;28;20488;-82
2022/02/09 13:13:06;;;;;;;14.00;2.50;;;9.50;99.90;;;;;;5001711;28;20050;-82
2022/02/09 13:15:51;;;;;;;16.02;2.95;;;9.30;99.90;;;;;;5003755;28;20045;-82
2022/02/09 14:17:51;;;;;;;13.90;3.10;;;8.50;99.90;;;;;;4902937;29;20076;-82
2022/02/09 14:35:51;;;;;;;18.30;4.85;;;9.80;99.90;;;;;;4821031;29;20049;-84
2022/02/09 14:54:41;;;;;;;18.50;4.75;;;8.90;99.90;;;;;;4931861;29;20050;-84
2022/02/09 14:57:13;;;;;;;18.50;5.63;;;8.90;99.90;;;;;;4915502;29;20051;-83
2022/02/09 15:02:15;;;;;;;19.70;5.22;;;8.90;99.90;;;;;;4932644;29;20043;-84
2022/02/09 15:07:41;;;;;;;17.13;4.65;;;9.50;99.90;;;;;;4944817;28;20045;-82
2022/02/09 15:10:15;;;;;;;17.63;4.20;;;8.90;99.90;;;;;;4999013;28;20126;-82
2022/02/09 15:12:59;;;;;;;24.33;5.10;;;8.80;99.90;;;;;;4974466;28;20042;-85
2022/02/09 15:15:57;;;;;;;20.15;5.03;;;9.30;99.90;;;;;;4990918;28;20050;-85
2022/02/09 15:23:39;;;;;;;24.75;4.50;;;8.90;99.90;;;;;;4985169;28;20045;-81
2022/02/09 15:26:06;;;;;;;29.02;4.95;;;8.90;99.90;;;;;;5002493;28;20046;-88
2022/02/09 15:28:33;;;;;;;20.02;3.83;;;8.90;99.90;;;;;;4980471;28;20148;-85
2022/02/09 15:31:17;;;;;;;26.02;4.43;;;9.00;99.90;;;;;;5006235;28;20108;-84
2022/02/09 15:33:47;;;;;;;18.42;4.45;;;9.50;99.90;;;;;;4982702;28;20073;-83
2022/02/09 15:36:17;;;;;;;22.27;4.85;;;8.90;99.90;;;;;;5000963;28;20046;-82
2022/02/09 15:38:45;;;;;;;20.67;3.88;;;8.90;99.90;;;;;;5000720;28;20053;-77
2022/02/09 15:41:29;;;;;;;19.25;4.43;;;9.00;99.90;;;;;;4991189;28;20093;-79
2022/02/09 16:07:08;;;;;;;29.17;4.03;;;8.60;99.90;;;;;;4999935;28;20053;-80
2022/02/09 16:09:27;;;;;;;18.23;3.80;;;8.60;99.90;;;;;;4990968;28;20046;-84
2022/02/09 16:17:51;;;;;;;22.13;3.75;;;8.60;99.90;;;;;;4987419;28;20180;-81
2022/02/09 16:20:48;;;;;;;21.48;4.07;;;8.60;99.90;;;;;;4987285;28;20042;-79
2022/02/09 16:46:30;;;;;;;19.80;3.83;;;8.50;99.90;;;;;;4981940;28;20145;-84
2022/02/09 16:51:26;;;;;;;17.63;3.67;;;8.20;99.90;;;;;;4991532;28;20049;-86
2022/02/09 16:56:59;;;;;;;;;;;8.20;99.90;;;;;;4934906;29;20138;-84
2022/02/09 17:22:03;;;;;;;26.70;5.90;;;8.80;99.90;;;;;;4856868;29;20053;-84
2022/02/09 17:24:35;;;;;;;22.42;4.97;;;7.70;99.90;;;;;;4734069;30;20070;-81
2022/02/09 17:56:58;;;;;;;25.50;4.57;;;8.00;99.90;;;;;;6288057;22;20496;-80
2022/02/09 18:04:37;;;;;;;25.05;4.32;;;8.00;99.90;;;;;;5963511;24;20080;-82
2022/02/09 18:07:37;;;;;;;21.42;4.88;;;7.90;99.90;;;;;;5881925;24;20160;-82
2022/02/09 18:10:23;;;;;;;22.58;4.30;;;7.80;99.90;;;;;;5860373;24;20013;-83
2022/02/09 18:59:33;;;;;;;16.47;5.70;;;8.50;99.90;;;;;;6096304;23;20037;-80
2022/02/09 19:04:51;;;;;;;21.30;6.78;;;7.70;99.90;;;;;;6040079;23;20025;-82
2022/02/09 19:42:07;;;;;;;21.98;8.20;;;7.20;99.90;;;;;;6011110;23;20016;-81
2022/02/09 19:46:52;;;;;;;37.60;9.23;;;7.70;99.90;;;;;;6033290;23;20054;-81
2022/02/09 19:54:58;;;;;;;33.08;10.20;;;7.60;99.90;;;;;;6032085;23;20063;-80
2022/02/09 19:57:24;;;;;;;32.42;9.93;;;7.70;99.90;;;;;;6007670;23;20019;-81
2022/02/09 19:59:50;;;;;;;33.03;9.95;;;7.70;99.90;;;;;;6007495;23;20109;-81
2022/02/09 20:02:18;;;;;;;29.52;10.13;;;7.60;99.90;;;;;;5985469;23;20355;-81
2022/02/09 20:04:44;;;;;;;29.08;10.48;;;7.70;99.90;;;;;;6049037;23;20014;-80
2022/02/09 20:07:09;;;;;;;36.58;10.77;;;7.70;99.90;;;;;;6099514;23;20399;-81
2022/02/09 20:09:35;;;;;;;31.58;11.57;;;7.60;99.90;;;;;;6086142;23;20017;-82
2022/02/09 20:12:01;;;;;;;29.88;10.93;;;7.70;99.90;;;;;;6156093;23;20016;-82
2022/02/09 20:14:28;;;;;;;36.60;11.95;;;7.70;99.90;;;;;;6156317;23;20017;-81
2022/02/09 20:16:53;;;;;;;37.25;11.73;;;7.70;99.90;;;;;;6156347;23;20009;-81
2022/02/09 20:19:19;;;;;;;38.17;12.85;;;7.60;99.90;;;;;;6156132;23;20421;-80
2022/02/09 20:21:45;;;;;;;31.85;12.77;;;7.60;99.90;;;;;;6155238;23;20016;-80
2022/02/09 20:24:14;;;;;;;31.27;13.35;;;7.70;99.90;;;;;;6155477;23;20040;-82
2022/02/09 20:26:41;;;;;;;36.53;13.88;;;7.70;99.90;;;;;;6153633;23;20154;-81
2022/02/09 20:29:30;;;;;;;41.28;14.18;;;7.60;99.90;;;;;;6154817;23;20021;-80
2022/02/09 20:32:08;;;;;;;40.58;14.65;;;7.70;99.90;;;;;;6154440;23;20354;-82
2022/02/09 20:34:39;;;;;;;45.83;15.93;;;7.80;99.90;;;;;;6156053;23;20316;-81
2022/02/09 20:37:10;;;;;;;45.08;16.17;;;7.60;99.90;;;;;;6154972;23;20084;-82
2022/02/09 20:39:42;;;;;;;44.00;16.20;;;7.60;99.90;;;;;;6129755;23;20452;-81
2022/02/09 20:42:15;;;;;;;40.55;15.98;;;7.60;99.90;;;;;;6155545;23;20096;-81
2022/02/09 20:44:48;;;;;;;44.33;17.25;;;7.60;99.90;;;;;;6131051;23;20021;-81
2022/02/09 20:47:15;;;;;;;48.00;17.93;;;7.70;99.90;;;;;;6155731;23;20413;-81
2022/02/09 20:49:40;;;;;;;49.83;18.05;;;7.60;99.90;;;;;;6156478;23;20074;-83
2022/02/09 20:52:06;;;;;;;42.47;17.50;;;7.60;99.90;;;;;;6155009;23;20036;-82
2022/02/09 20:54:32;;;;;;;42.28;18.25;;;7.60;99.90;;;;;;6155993;23;20013;-82
2022/02/09 20:56:58;;;;;;;51.63;18.63;;;7.60;99.90;;;;;;6156208;23;20098;-82
2022/02/09 20:59:27;;;;;;;50.00;18.63;;;7.70;99.90;;;;;;6154186;23;20089;-82
2022/02/09 21:02:03;;;;;;;50.28;18.75;;;7.70;99.90;;;;;;6154546;23;20017;-82
2022/02/09 21:04:36;;;;;;;46.75;18.45;;;7.60;99.90;;;;;;6130235;23;20048;-80
2022/02/09 21:12:42;;;;;;;51.33;19.40;;;7.70;99.90;;;;;;6064496;23;20025;-81
2022/02/09 21:18:15;;;;;;;53.38;20.75;;;7.70;99.90;;;;;;6036583;23;20097;-83
2022/02/09 21:33:37;;;;;;;59.63;20.75;;;8.20;99.90;;;;;;5925966;24;20085;-82
2022/02/09 22:21:43;;;;;;;47.85;18.45;;;8.10;99.90;;;;;;5839130;24;20044;-82
2022/02/09 22:27:38;;;;;;;45.67;18.17;;;7.70;99.90;;;;;;5842051;24;20564;-83
2022/02/09 22:55:08;;;;;;;53.07;21.13;;;7.50;99.90;;;;;;6181717;23;20025;-82
2022/02/09 22:57:50;;;;;;;72.05;22.38;;;7.50;99.90;;;;;;6153448;23;20680;-83
2022/02/09 23:15:21;;;;;;;45.53;18.02;;;7.40;99.90;;;;;;6096160;23;20018;-82
